Weather History for Winchester, TN

Change the Weather History Date:

Wednesday, November 21, 2012

  Actual Average (KTHA) Record (KTHA)
Temperature  
Mean Temperature 52 °F -  
Max Temperature 66 °F 55 °F 62 °F (2013)
Min Temperature 37 °F 37 °F 32 °F (2014)
Degree Days  
Heating Degree Days 14    
Growing Degree Days 2 (Base 50)    
Moisture  
Dew Point 43 °F    
Average Humidity 77    
Maximum Humidity 100    
Minimum Humidity 46    
Precipitation  
Precipitation 0.00 in - - ()
Sea Level Pressure  
Sea Level Pressure 30.17 in    
Wind  
Wind Speed 1 mph ()    
Max Wind Speed 7 mph    
Max Gust Speed -    
Visibility 9.9 miles    
Events      
Averages and records for this station are not official NWS values.
T = Trace of Precipitation, MM = Missing Value Source: Averaged Metar Reports

Daily Weather History Graph

Daily Weather History Graph

Search for Another Location

Airport:

Trip Planner

Search our weather history database for the weather conditions in past years. The results will help you decide how hot, cold, wet, or windy it might be!

Date:

Astronomy

Nov. 21, 2012 Rise Set
Actual Time 7:25 AM EST 5:34 PM EST
Civil Twilight 6:58 AM EST 6:02 PM EST
Nautical Twilight 6:27 AM EST 6:33 PM EST
Astronomical Twilight 5:56 AM EST 7:03 PM EST
Moon 1:38 PM EST (11/21) 12:57 AM EST (11/21)
Length of Visible Light 11h 04m
Length of Day
10h 09m
First Quarter, 61% of the Moon is Illuminated
Nov 21
First Quarter
Nov 28
Full
Dec 6
Last Quarter
Dec 13
New
Dec 20
First Quarter

Hourly Weather History & Observations

Time (EST) Temp. Dew Point Humidity Pressure Visibility Wind Dir Wind Speed Gust Speed Precip Events Conditions
12:15 AM 51.8 °F 44.6 °F 76% 30.13 in 10.0 mi Calm Calm - N/A   Overcast
12:35 AM 50.0 °F 44.6 °F 82% 30.13 in 10.0 mi Calm Calm - N/A   Overcast
12:55 AM 50.0 °F 44.6 °F 82% 30.13 in 10.0 mi Calm Calm - N/A   Overcast
1:35 AM 50.0 °F 44.6 °F 82% 30.12 in 10.0 mi Calm Calm - N/A   Overcast
1:55 AM 50.0 °F 44.6 °F 82% 30.12 in 10.0 mi Calm Calm - N/A   Overcast
2:15 AM 50.0 °F 44.6 °F 82% 30.13 in 10.0 mi Calm Calm - N/A   Overcast
2:35 AM 48.2 °F 44.6 °F 87% 30.13 in 10.0 mi Calm Calm - N/A   Overcast
2:55 AM 48.2 °F 44.6 °F 87% 30.12 in 10.0 mi Calm Calm - N/A   Overcast
3:15 AM 46.4 °F 44.6 °F 93% 30.13 in 10.0 mi Calm Calm - N/A   Mostly Cloudy
3:35 AM 46.4 °F 42.8 °F 87% 30.12 in 10.0 mi Calm Calm - N/A   Scattered Clouds
3:55 AM 44.6 °F 42.8 °F 93% 30.12 in 10.0 mi Calm Calm - N/A   Clear
4:15 AM 42.8 °F 42.8 °F 100% 30.11 in 10.0 mi Calm Calm - N/A   Clear
4:35 AM 44.6 °F 42.8 °F 93% 30.12 in 10.0 mi Calm Calm - N/A   Clear
4:55 AM 42.8 °F 41.0 °F 93% 30.12 in 10.0 mi Calm Calm - N/A   Clear
5:15 AM 42.8 °F 41.0 °F 93% 30.13 in 10.0 mi Calm Calm - N/A   Clear
5:35 AM 41.0 °F 39.2 °F 93% 30.14 in 10.0 mi Calm Calm - N/A   Clear
5:55 AM 41.0 °F 39.2 °F 93% 30.15 in 10.0 mi Calm Calm - N/A   Clear
6:15 AM 39.2 °F 37.4 °F 93% 30.15 in 10.0 mi Calm Calm - N/A   Clear
6:35 AM 37.4 °F 37.4 °F 100% 30.16 in 10.0 mi Calm Calm - N/A   Clear
6:55 AM 39.2 °F 37.4 °F 93% 30.17 in 10.0 mi Calm Calm - N/A   Clear
7:15 AM 37.4 °F 37.4 °F 100% 30.17 in 10.0 mi Calm Calm - N/A   Clear
7:35 AM 37.4 °F 37.4 °F 100% 30.17 in 10.0 mi Calm Calm - N/A   Clear
7:55 AM 39.2 °F 37.4 °F 93% 30.18 in 10.0 mi Calm Calm - N/A   Clear
8:15 AM 39.2 °F 39.2 °F 100% 30.19 in 10.0 mi Calm Calm - N/A   Clear
8:35 AM 42.8 °F 42.8 °F 100% 30.19 in 10.0 mi Calm Calm - N/A   Clear
8:55 AM 46.4 °F 44.6 °F 93% 30.20 in 10.0 mi Calm Calm - N/A   Clear
9:15 AM 48.2 °F 44.6 °F 87% 30.20 in 10.0 mi Calm Calm - N/A   Clear
9:35 AM 51.8 °F 44.6 °F 76% 30.21 in 10.0 mi Calm Calm - N/A   Clear
9:55 AM 53.6 °F 46.4 °F 77% 30.21 in 10.0 mi Calm Calm - N/A   Clear
10:15 AM 55.4 °F 46.4 °F 72% 30.21 in 10.0 mi Calm Calm - N/A   Clear
10:35 AM 57.2 °F 46.4 °F 67% 30.20 in 10.0 mi Calm Calm - N/A   Clear
10:55 AM 57.2 °F 46.4 °F 67% 30.21 in 10.0 mi Calm Calm - N/A   Clear
11:15 AM 59.0 °F 46.4 °F 63% 30.21 in 10.0 mi Calm Calm - N/A   Clear
11:35 AM 60.8 °F 46.4 °F 59% 30.20 in 10.0 mi Calm Calm - N/A   Clear
11:55 AM 62.6 °F 48.2 °F 59% 30.20 in 10.0 mi North 4.6 mph - N/A   Clear
12:15 PM 62.6 °F 46.4 °F 55% 30.19 in 10.0 mi North 6.9 mph - N/A   Clear
12:35 PM 64.4 °F 46.4 °F 52% 30.18 in 10.0 mi Variable 3.5 mph - N/A   Clear
12:55 PM 64.4 °F 48.2 °F 56% 30.18 in 10.0 mi North 6.9 mph - N/A   Clear
1:15 PM 64.4 °F 46.4 °F 52% 30.17 in 10.0 mi North 3.5 mph - N/A   Clear
1:35 PM 66.2 °F 46.4 °F 49% 30.17 in 10.0 mi NNW 5.8 mph - N/A   Clear
1:55 PM 66.2 °F 46.4 °F 49% 30.16 in 10.0 mi Variable 5.8 mph - N/A   Clear
2:15 PM 66.2 °F 46.4 °F 49% 30.16 in 10.0 mi NW 5.8 mph - N/A   Clear
2:35 PM 66.2 °F 46.4 °F 49% 30.16 in 10.0 mi Variable 4.6 mph - N/A   Clear
2:55 PM 66.2 °F 46.4 °F 49% 30.15 in 10.0 mi Calm Calm - N/A   Clear
3:15 PM 66.2 °F 44.6 °F 46% 30.15 in 10.0 mi NNE 3.5 mph - N/A   Clear
3:35 PM 66.2 °F 46.4 °F 49% 30.15 in 10.0 mi NNE 6.9 mph - N/A   Clear
3:55 PM 64.4 °F 46.4 °F 52% 30.16 in 10.0 mi Variable 4.6 mph - N/A   Clear
4:15 PM 64.4 °F 46.4 °F 52% 30.16 in 10.0 mi NW 3.5 mph - N/A   Partly Cloudy
4:35 PM 64.4 °F 46.4 °F 52% 30.16 in 10.0 mi NNW 5.8 mph - N/A   Mostly Cloudy
4:55 PM 64.4 °F 46.4 °F 52% 30.16 in 10.0 mi NW 5.8 mph - N/A   Partly Cloudy
5:15 PM 62.6 °F 46.4 °F 55% 30.17 in 10.0 mi NW 5.8 mph - N/A   Clear
5:35 PM 62.6 °F 46.4 °F 55% 30.17 in 10.0 mi NW 4.6 mph - N/A   Clear
5:55 PM 59.0 °F 46.4 °F 63% 30.18 in 10.0 mi NNW 4.6 mph - N/A   Clear
6:15 PM 57.2 °F 44.6 °F 63% 30.19 in 10.0 mi NW 3.5 mph - N/A   Clear
6:35 PM 57.2 °F 44.6 °F 63% 30.19 in 10.0 mi NNW 4.6 mph - N/A   Clear
6:55 PM 57.2 °F 44.6 °F 63% 30.20 in 10.0 mi North 3.5 mph - N/A   Clear
7:15 PM 51.8 °F 44.6 °F 76% 30.20 in 10.0 mi Calm Calm - N/A   Clear
7:35 PM 48.2 °F 44.6 °F 87% 30.20 in 10.0 mi SSE 3.5 mph - N/A   Clear
7:55 PM 48.2 °F 42.8 °F 82% 30.21 in 10.0 mi Calm Calm - N/A   Clear
8:15 PM 46.4 °F 42.8 °F 87% 30.21 in 10.0 mi Calm Calm - N/A   Clear
8:35 PM 44.6 °F 42.8 °F 93% 30.21 in 10.0 mi Calm Calm - N/A   Clear
8:55 PM 46.4 °F 42.8 °F 87% 30.21 in 10.0 mi Calm Calm - N/A   Clear
9:15 PM 42.8 °F 39.2 °F 87% 30.21 in 10.0 mi Calm Calm - N/A   Clear
9:35 PM 42.8 °F 42.8 °F 100% 30.21 in 10.0 mi Calm Calm - N/A   Clear
9:55 PM 42.8 °F 41.0 °F 93% 30.21 in 10.0 mi Calm Calm - N/A   Clear
10:15 PM 42.8 °F 41.0 °F 93% 30.21 in 10.0 mi Calm Calm - N/A   Clear
10:35 PM 39.2 °F 37.4 °F 93% 30.21 in 10.0 mi Calm Calm - N/A   Clear
10:55 PM 41.0 °F 39.2 °F 93% 30.21 in 8.0 mi Calm Calm - N/A   Clear
11:15 PM 41.0 °F 39.2 °F 93% 30.21 in 8.0 mi Calm Calm - N/A   Clear
11:35 PM 39.2 °F 37.4 °F 93% 30.21 in 7.0 mi Calm Calm - N/A   Clear
11:55 PM 39.2 °F 39.2 °F 100% 30.21 in 8.0 mi Calm Calm - N/A   Clear